Memphis International Airport
KMEM : now visible

Airfield :











YOU CAN JOIN US ON...

 
LOGIN :

Register | Disclaimer

   EN    FR    IT 

 









Legend :    VFR   Marginal VFR   IFR   Intensive IFR   Very Intensive IFR
Visi :
Ceiling :
>= 8 km
>= 3000ft
5 to 8 km
1000 to 3000 ft
1500m to 5 km
500 to 1000 ft
800 to 1500m
200 to 500 ft
< 800m
< 200 ft
Symbols :   Thunderstorms  Fog  Heavy snow  Heavy precipitations  Wind > 20 kt






- Airport Elevation : 341 ft
- IATA code : MEM


KMEM - Memphis International

CURRENT METAR :
  • 261554Z 07012KT 10SM OVC008 12/09 A3014 RMK AO2 SLP205 CIG 006V010 T01220094

EXPIRED METARs :
  • 261536Z 04012KT 10SM OVC008 12/09 A3015 RMK AO2 CIG 006V010 T01170094
  • 261513Z 04012KT 8SM BKN005 OVC010 12/09 A3015 RMK AO2 T01220094
  • 261454Z 04009KT 6SM BR OVC005 12/09 A3016 RMK AO2 SLP211 T01170094 51013
  • 261432Z 02011KT 4SM BR OVC005 11/09 A3016 RMK AO2 T01110094
  • 261354Z 03008KT 2SM BR OVC003 11/10 A3015 RMK AO2 SFC VIS 5 SLP210 T01110100

TAF KMEM
Valid from the 26 at 12:00 until the 27 at 18:00 UTC


261120Z 2612/2718 04005KT P6SM BKN005 OVC012
FM261500 02007KT P6SM SCT008 OVC015
FM261900 04009KT P6SM SCT025 OVC050
FM270200 01011KT P6SM VCSH OVC015
KZME FIR / North America



MET'MAP, your aeronautical weather chart ! - Copyright ORBIFLY December 2007 - Disclaimer

ORBIFLY MET'MAP TEAM :

Programming & Development : Alexandra Zaïnal
Concept & original design : Baudouin d'Aumeries
Assistance for programming : Marc-Olivier Méhu
Technical & hardware support : Manuel Goepfert

Contact : metmap@orbifly.com




SOURCES & CREDITS :

   NOAA       Earth
Advisory